Time;durP1;ratioP1;P1;durP2;ratioP2;P2;SDS_P1;SDS_P2;PMS_P1;PMS_P2;Temp;Humidity;BMP_temperature;BMP_pressure;BME280_temperature;BME280_humidity;BME280_pressure;Samples;Min_cycle;Max_cycle;Signal;HPM_P1;HPM_P2
2021/09/05 00:18:39;;;;;;;;;;;;;;;;;;4183584;34;20186;-65
2021/09/05 00:21:05;;;;;;;1.90;1.70;;;;;;;;;;4173671;34;20397;-65
2021/09/05 00:23:30;;;;;;;7.32;1.70;;;;;;;;;;4200425;34;20105;-69
2021/09/05 00:25:56;;;;;;;2.05;1.70;;;;;;;;;;4189996;34;20128;-68
2021/09/05 00:28:22;;;;;;;1.77;1.67;;;;;;;;;;4199668;34;20118;-68
2021/09/05 00:30:48;;;;;;;1.62;1.50;;;;;;;;;;4195781;34;20106;-68
2021/09/05 00:33:14;;;;;;;2.58;1.67;;;;;;;;;;4187454;34;20133;-68
2021/09/05 00:35:40;;;;;;;2.67;1.77;;;;;;;;;;4203948;34;20122;-68
2021/09/05 00:38:05;;;;;;;4.15;1.65;;;;;;;;;;4190216;34;20137;-71
2021/09/05 00:40:31;;;;;;;2.03;1.80;;;;;;;;;;4190351;34;20145;-71
2021/09/05 00:42:57;;;;;;;6.20;1.60;;;;;;;;;;4190109;34;20114;-70
2021/09/05 00:45:23;;;;;;;4.53;2.00;;;;;;;;;;4196707;34;20100;-71
2021/09/05 00:47:49;;;;;;;5.47;2.85;;;;;;;;;;4204055;34;20118;-71
2021/09/05 00:50:14;;;;;;;1.77;1.48;;;;;;;;;;4191417;34;20174;-71
2021/09/05 00:52:40;;;;;;;2.25;2.05;;;;;;;;;;4203986;34;20129;-71
2021/09/05 00:55:07;;;;;;;1.87;1.75;;;;;;;;;;4191201;34;20136;-70
2021/09/05 00:57:33;;;;;;;2.72;1.90;;;;;;;;;;4203823;34;20725;-70
2021/09/05 00:59:59;;;;;;;2.30;1.80;;;;;;;;;;4180681;34;20137;-70
2021/09/05 01:02:24;;;;;;;2.37;2.17;;;;;;;;;;4199708;34;20194;-71
2021/09/05 01:04:50;;;;;;;4.50;1.80;;;;;;;;;;4192194;34;20209;-70
2021/09/05 01:07:16;;;;;;;3.20;1.98;;;;;;;;;;4192307;34;20214;-71
2021/09/05 01:09:42;;;;;;;2.12;1.85;;;;;;;;;;4192111;34;20126;-71
2021/09/05 01:12:08;;;;;;;2.05;1.85;;;;;;;;;;4192050;34;20816;-70
2021/09/05 01:14:34;;;;;;;3.65;1.95;;;;;;;;;;4179388;34;20124;-71
2021/09/05 01:17:00;;;;;;;2.65;1.90;;;;;;;;;;4191843;34;20209;-70
2021/09/05 01:19:25;;;;;;;5.45;1.87;;;;;;;;;;4191800;34;20197;-70
2021/09/05 01:21:52;;;;;;;4.78;2.17;;;;;;;;;;4192069;34;20168;-70
2021/09/05 01:24:20;;;;;;;3.28;2.20;;;;;;;;;;4191995;34;20117;-71
2021/09/05 01:26:47;;;;;;;2.78;1.83;;;;;;;;;;4192070;34;20170;-70
2021/09/05 01:29:14;;;;;;;3.25;1.70;;;;;;;;;;4198929;34;20128;-70
2021/09/05 01:31:44;;;;;;;2.53;1.50;;;;;;;;;;4206824;34;20117;-71
2021/09/05 01:34:11;;;;;;;3.50;2.08;;;;;;;;;;4206611;34;20097;-70
2021/09/05 01:36:37;;;;;;;3.87;1.98;;;;;;;;;;4206988;34;20109;-70
2021/09/05 01:39:08;;;;;;;2.65;1.80;;;;;;;;;;4219545;34;20117;-71
2021/09/05 01:41:33;;;;;;;2.33;1.87;;;;;;;;;;4219617;34;20117;-70
2021/09/05 01:44:04;;;;;;;3.30;2.75;;;;;;;;;;4206522;34;20619;-70
2021/09/05 01:46:30;;;;;;;2.67;1.90;;;;;;;;;;4219894;34;20196;-70
2021/09/05 01:48:56;;;;;;;2.25;1.73;;;;;;;;;;4219446;34;20098;-70
2021/09/05 01:51:21;;;;;;;2.30;1.90;;;;;;;;;;4219405;34;20124;-71
2021/09/05 01:53:47;;;;;;;2.10;1.87;;;;;;;;;;4219392;34;20456;-71
2021/09/05 01:56:13;;;;;;;3.05;2.10;;;;;;;;;;4219375;34;20501;-71
2021/09/05 01:58:39;;;;;;;3.22;2.05;;;;;;;;;;4206392;34;20553;-71
2021/09/05 02:01:05;;;;;;;2.72;2.15;;;;;;;;;;4206717;34;20111;-71
2021/09/05 02:03:31;;;;;;;4.80;2.08;;;;;;;;;;4202153;34;20121;-71
2021/09/05 02:05:57;;;;;;;2.58;2.03;;;;;;;;;;4204986;34;20109;-71
2021/09/05 02:08:22;;;;;;;2.10;1.83;;;;;;;;;;4205480;34;20117;-71
2021/09/05 02:10:48;;;;;;;1.92;1.73;;;;;;;;;;4205259;34;20137;-70
2021/09/05 02:13:14;;;;;;;2.25;1.95;;;;;;;;;;4205687;34;20129;-70
2021/09/05 02:15:40;;;;;;;2.40;1.62;;;;;;;;;;4205443;34;20529;-70
2021/09/05 02:18:06;;;;;;;2.72;2.05;;;;;;;;;;4205204;34;20118;-70
2021/09/05 02:20:32;;;;;;;2.15;1.80;;;;;;;;;;4205290;34;20130;-71
2021/09/05 02:22:58;;;;;;;1.70;1.60;;;;;;;;;;4205396;34;20128;-71
2021/09/05 02:25:24;;;;;;;4.20;1.73;;;;;;;;;;4205557;34;20129;-71
2021/09/05 02:27:50;;;;;;;2.25;1.60;;;;;;;;;;4205433;34;20113;-71
2021/09/05 02:30:15;;;;;;;1.95;1.77;;;;;;;;;;4213203;34;20132;-70
2021/09/05 02:32:41;;;;;;;6.18;1.75;;;;;;;;;;4194668;34;20568;-71
2021/09/05 02:35:08;;;;;;;1.98;1.75;;;;;;;;;;4218980;34;20288;-71
2021/09/05 02:37:37;;;;;;;2.20;1.55;;;;;;;;;;4219052;34;20136;-71
2021/09/05 02:40:04;;;;;;;1.70;1.60;;;;;;;;;;4206823;34;20125;-71
2021/09/05 02:42:33;;;;;;;2.28;1.70;;;;;;;;;;4205998;34;20196;-70
2021/09/05 02:45:01;;;;;;;2.03;1.70;;;;;;;;;;4206473;34;20123;-70
2021/09/05 02:47:27;;;;;;;3.00;1.95;;;;;;;;;;4219271;34;20106;-71
2021/09/05 02:49:53;;;;;;;2.05;1.60;;;;;;;;;;4218935;34;20121;-71
2021/09/05 02:52:19;;;;;;;2.22;2.00;;;;;;;;;;4206192;34;20117;-71
2021/09/05 02:54:44;;;;;;;1.95;1.80;;;;;;;;;;4218945;34;20176;-70
2021/09/05 02:57:10;;;;;;;2.55;1.55;;;;;;;;;;4219005;34;20147;-70
2021/09/05 02:59:36;;;;;;;3.10;1.73;;;;;;;;;;4218794;34;20147;-71
2021/09/05 03:02:02;;;;;;;5.40;1.80;;;;;;;;;;4219205;34;20582;-71
2021/09/05 03:04:28;;;;;;;4.10;1.98;;;;;;;;;;4218753;34;20102;-70
2021/09/05 03:06:55;;;;;;;1.95;1.77;;;;;;;;;;4205972;34;20632;-71
2021/09/05 03:09:21;;;;;;;1.80;1.67;;;;;;;;;;4218687;34;20113;-71
2021/09/05 03:11:47;;;;;;;3.12;1.92;;;;;;;;;;4218924;34;20261;-71
2021/09/05 03:14:12;;;;;;;6.30;2.00;;;;;;;;;;4218655;34;20145;-70
2021/09/05 03:16:38;;;;;;;2.30;1.60;;;;;;;;;;4218608;34;20109;-71
2021/09/05 03:19:04;;;;;;;2.10;1.90;;;;;;;;;;4218564;34;20141;-70
2021/09/05 03:21:30;;;;;;;1.83;1.40;;;;;;;;;;4218376;34;20118;-71
2021/09/05 03:23:56;;;;;;;2.40;1.98;;;;;;;;;;4218517;33;20224;-71
2021/09/05 03:26:22;;;;;;;2.10;1.58;;;;;;;;;;4206110;34;20118;-71
2021/09/05 03:28:47;;;;;;;1.75;1.65;;;;;;;;;;4218749;34;20105;-71
2021/09/05 03:31:13;;;;;;;10.05;3.05;;;;;;;;;;4218494;34;20098;-71
2021/09/05 03:33:39;;;;;;;1.70;1.58;;;;;;;;;;4205684;34;20125;-71
2021/09/05 03:36:05;;;;;;;1.80;1.60;;;;;;;;;;4211963;34;20637;-71
2021/09/05 03:38:32;;;;;;;1.77;1.60;;;;;;;;;;4204502;34;20209;-71
2021/09/05 03:40:57;;;;;;;4.75;1.60;;;;;;;;;;4204690;34;20120;-71
2021/09/05 03:43:24;;;;;;;3.08;1.90;;;;;;;;;;4204480;34;20216;-71
2021/09/05 03:45:50;;;;;;;2.12;1.90;;;;;;;;;;4204373;34;20502;-70
2021/09/05 03:48:16;;;;;;;4.78;1.80;;;;;;;;;;4191609;34;20191;-71
2021/09/05 03:50:42;;;;;;;2.05;1.50;;;;;;;;;;4191713;34;20137;-71
2021/09/05 03:53:07;;;;;;;2.17;1.70;;;;;;;;;;4204376;34;20113;-71
2021/09/05 03:55:33;;;;;;;1.92;1.58;;;;;;;;;;4204549;34;20124;-71
2021/09/05 03:57:59;;;;;;;1.90;1.60;;;;;;;;;;4204342;34;20110;-70
2021/09/05 04:00:25;;;;;;;2.22;1.85;;;;;;;;;;4204488;34;20556;-71
2021/09/05 04:02:51;;;;;;;4.15;1.67;;;;;;;;;;4204602;34;20189;-69
2021/09/05 04:05:17;;;;;;;1.75;1.58;;;;;;;;;;4204426;34;20112;-69
2021/09/05 04:10:28;;;;;;;3.72;1.45;;;;;;;;;;4204557;34;20116;-70
2021/09/05 04:12:54;;;;;;;1.60;1.50;;;;;;;;;;4204537;34;20178;-70
2021/09/05 04:15:19;;;;;;;3.22;1.52;;;;;;;;;;4204391;34;20098;-69
2021/09/05 04:17:45;;;;;;;2.00;1.73;;;;;;;;;;4203884;34;20130;-69
2021/09/05 04:20:11;;;;;;;2.12;1.50;;;;;;;;;;4204210;34;20118;-70
2021/09/05 04:22:37;;;;;;;1.70;1.50;;;;;;;;;;4204275;34;20224;-69
2021/09/05 04:25:04;;;;;;;1.30;1.20;;;;;;;;;;4179908;34;20129;-69
2021/09/05 04:27:30;;;;;;;3.83;1.40;;;;;;;;;;4204346;34;20130;-73
2021/09/05 04:29:56;;;;;;;2.45;1.50;;;;;;;;;;4197416;34;20113;-73
2021/09/05 04:32:22;;;;;;;1.67;1.37;;;;;;;;;;4193838;34;20548;-74
2021/09/05 04:34:48;;;;;;;2.03;1.85;;;;;;;;;;4196004;34;20105;-74
2021/09/05 04:37:18;;;;;;;1.75;1.45;;;;;;;;;;4220260;33;20221;-74
2021/09/05 04:39:47;;;;;;;2.12;1.45;;;;;;;;;;4220274;33;20131;-74
2021/09/05 04:42:13;;;;;;;1.75;1.65;;;;;;;;;;4220261;34;20132;-73
2021/09/05 04:44:39;;;;;;;2.45;1.85;;;;;;;;;;4220139;34;20544;-74
2021/09/05 04:47:05;;;;;;;2.12;1.77;;;;;;;;;;4220176;34;20612;-73
2021/09/05 04:49:32;;;;;;;3.65;1.60;;;;;;;;;;4220138;34;20109;-73
2021/09/05 04:51:58;;;;;;;3.35;1.55;;;;;;;;;;4207241;34;20132;-68
2021/09/05 04:54:24;;;;;;;1.50;1.40;;;;;;;;;;4218266;34;20124;-72
2021/09/05 04:56:50;;;;;;;2.22;1.87;;;;;;;;;;4206949;34;20585;-72
2021/09/05 04:59:16;;;;;;;2.53;1.70;;;;;;;;;;4219772;34;20125;-72
2021/09/05 05:01:42;;;;;;;1.40;1.30;;;;;;;;;;4219987;33;20119;-70
2021/09/05 05:04:08;;;;;;;1.73;1.62;;;;;;;;;;4219855;34;20204;-73
2021/09/05 05:06:34;;;;;;;1.55;1.45;;;;;;;;;;4207183;34;20110;-72
2021/09/05 05:09:00;;;;;;;1.27;1.17;;;;;;;;;;4220030;34;20139;-72
2021/09/05 05:11:26;;;;;;;1.70;1.60;;;;;;;;;;4206801;34;20148;-72
2021/09/05 05:13:52;;;;;;;7.45;1.67;;;;;;;;;;4205715;34;20324;-68
2021/09/05 05:16:19;;;;;;;1.65;1.50;;;;;;;;;;4204660;34;20202;-66
2021/09/05 05:18:45;;;;;;;2.17;1.42;;;;;;;;;;4218173;34;20549;-70
2021/09/05 05:21:11;;;;;;;1.35;1.25;;;;;;;;;;4218376;34;20128;-70
2021/09/05 05:23:37;;;;;;;1.62;1.52;;;;;;;;;;4218478;34;20209;-73
2021/09/05 05:26:03;;;;;;;1.73;1.60;;;;;;;;;;4205402;34;20153;-70
2021/09/05 05:28:29;;;;;;;1.37;1.27;;;;;;;;;;4219042;34;20098;-72
2021/09/05 05:30:55;;;;;;;2.87;1.65;;;;;;;;;;4219559;34;20520;-68
2021/09/05 05:33:20;;;;;;;2.83;1.77;;;;;;;;;;4219681;34;20193;-71
2021/09/05 05:35:46;;;;;;;1.62;1.30;;;;;;;;;;4205693;34;20533;-72
2021/09/05 05:38:12;;;;;;;3.40;1.58;;;;;;;;;;4219505;34;21016;-72
2021/09/05 05:40:38;;;;;;;2.85;1.52;;;;;;;;;;4219555;34;20208;-72
2021/09/05 05:43:04;;;;;;;1.70;1.60;;;;;;;;;;4219583;34;20626;-70
2021/09/05 05:45:30;;;;;;;1.55;1.45;;;;;;;;;;4219161;34;20549;-68
2021/09/05 05:47:56;;;;;;;1.60;1.50;;;;;;;;;;4219670;34;20180;-68
2021/09/05 05:50:22;;;;;;;1.37;1.27;;;;;;;;;;4219439;34;20201;-69
2021/09/05 05:52:48;;;;;;;1.58;1.48;;;;;;;;;;4219440;34;20113;-70
2021/09/05 05:55:13;;;;;;;1.35;1.25;;;;;;;;;;4219738;34;20121;-73
2021/09/05 05:57:39;;;;;;;1.75;1.40;;;;;;;;;;4219558;34;20112;-70
2021/09/05 06:00:06;;;;;;;8.63;1.70;;;;;;;;;;4219613;34;20480;-69
2021/09/05 06:02:32;;;;;;;3.00;1.62;;;;;;;;;;4219453;34;20129;-67
2021/09/05 06:04:58;;;;;;;1.98;1.52;;;;;;;;;;4206420;34;20133;-69
2021/09/05 06:07:27;;;;;;;1.65;1.55;;;;;;;;;;4219334;34;20200;-69
2021/09/05 06:09:53;;;;;;;2.17;1.30;;;;;;;;;;4203754;34;20135;-68
2021/09/05 06:12:19;;;;;;;1.50;1.40;;;;;;;;;;4210923;34;20109;-68
2021/09/05 06:14:45;;;;;;;2.25;1.62;;;;;;;;;;4184218;34;20198;-67
2021/09/05 06:17:11;;;;;;;3.42;1.30;;;;;;;;;;4176648;34;20221;-70
2021/09/05 06:19:37;;;;;;;1.70;1.60;;;;;;;;;;4201208;34;20090;-68
2021/09/05 06:22:03;;;;;;;5.43;1.42;;;;;;;;;;4203313;34;20125;-69
2021/09/05 06:24:29;;;;;;;2.45;1.30;;;;;;;;;;4203207;34;20282;-70
2021/09/05 06:26:55;;;;;;;2.85;1.50;;;;;;;;;;4185690;34;20133;-70
2021/09/05 06:29:21;;;;;;;1.67;1.50;;;;;;;;;;4176457;34;20152;-70
2021/09/05 06:31:47;;;;;;;1.85;1.40;;;;;;;;;;4190486;34;20189;-70
2021/09/05 06:34:13;;;;;;;3.15;1.60;;;;;;;;;;4191440;34;20113;-70
2021/09/05 06:36:39;;;;;;;1.40;1.30;;;;;;;;;;4191305;34;20114;-70
2021/09/05 06:39:04;;;;;;;4.82;1.60;;;;;;;;;;4191289;34;20529;-69
2021/09/05 06:41:30;;;;;;;3.00;1.60;;;;;;;;;;4191310;34;20137;-70
2021/09/05 06:43:57;;;;;;;1.55;1.45;;;;;;;;;;4183181;34;20155;-69
2021/09/05 06:46:23;;;;;;;1.60;1.50;;;;;;;;;;4192204;34;20111;-69
2021/09/05 06:48:49;;;;;;;1.95;1.50;;;;;;;;;;4205160;34;20120;-69
2021/09/05 06:51:15;;;;;;;1.73;1.37;;;;;;;;;;4205139;34;20113;-69
2021/09/05 06:53:41;;;;;;;3.37;1.80;;;;;;;;;;4180791;34;20140;-69
2021/09/05 06:56:06;;;;;;;1.60;1.50;;;;;;;;;;4191783;34;20129;-70
2021/09/05 06:58:32;;;;;;;2.90;1.70;;;;;;;;;;4204320;34;20132;-70
2021/09/05 07:00:58;;;;;;;5.75;1.42;;;;;;;;;;4205217;34;20259;-69
2021/09/05 07:03:24;;;;;;;1.42;1.33;;;;;;;;;;4192317;34;20105;-69
2021/09/05 07:05:50;;;;;;;2.40;1.65;;;;;;;;;;4204818;34;20498;-70
2021/09/05 07:08:16;;;;;;;3.95;1.42;;;;;;;;;;4204904;34;20119;-70
2021/09/05 07:10:41;;;;;;;2.15;1.60;;;;;;;;;;4204935;34;20145;-70
2021/09/05 07:13:07;;;;;;;1.58;1.48;;;;;;;;;;4203009;34;20114;-70
2021/09/05 07:17:26;;;;;;;;;;;;;;;;;;3845517;37;20102;-70
2021/09/05 07:19:52;;;;;;;2.25;1.60;;;;;;;;;;4419904;32;19996;-70
2021/09/05 07:22:18;;;;;;;1.40;1.30;;;;;;;;;;4419848;32;20550;-70
2021/09/05 07:24:44;;;;;;;2.78;1.20;;;;;;;;;;4420063;32;20128;-70
2021/09/05 07:27:10;;;;;;;1.35;1.25;;;;;;;;;;4418194;32;20096;-70
2021/09/05 07:29:36;;;;;;;1.90;1.58;;;;;;;;;;4418345;32;20105;-70
2021/09/05 07:32:02;;;;;;;1.52;1.42;;;;;;;;;;4418396;32;20111;-70
2021/09/05 07:34:28;;;;;;;4.68;1.62;;;;;;;;;;4419792;32;20097;-69
2021/09/05 07:36:53;;;;;;;2.10;1.85;;;;;;;;;;4419624;32;20111;-69
2021/09/05 07:39:19;;;;;;;1.58;1.42;;;;;;;;;;4419640;32;20127;-70
2021/09/05 07:41:45;;;;;;;1.20;1.20;;;;;;;;;;4419635;32;20531;-70
2021/09/05 07:44:11;;;;;;;2.55;1.50;;;;;;;;;;4419642;32;20121;-69
2021/09/05 07:46:37;;;;;;;1.20;1.10;;;;;;;;;;4419697;32;20097;-70
2021/09/05 07:49:03;;;;;;;2.80;1.23;;;;;;;;;;4419920;32;20090;-70
2021/09/05 07:51:29;;;;;;;3.92;1.45;;;;;;;;;;4419814;32;20140;-70
2021/09/05 07:53:54;;;;;;;3.47;1.37;;;;;;;;;;4419660;32;20193;-69
2021/09/05 07:56:21;;;;;;;1.40;1.30;;;;;;;;;;4419478;32;20192;-69
2021/09/05 07:58:47;;;;;;;3.62;1.42;;;;;;;;;;4418358;32;20113;-69
2021/09/05 08:01:16;;;;;;;7.32;1.67;;;;;;;;;;4418289;32;20116;-69
2021/09/05 08:03:42;;;;;;;1.52;1.42;;;;;;;;;;4419486;32;20097;-70
2021/09/05 08:06:08;;;;;;;1.52;1.30;;;;;;;;;;4417673;32;20109;-70
2021/09/05 08:08:36;;;;;;;1.70;1.27;;;;;;;;;;4418036;32;20093;-69
2021/09/05 08:11:05;;;;;;;1.20;1.10;;;;;;;;;;4418224;32;20118;-70
2021/09/05 08:13:32;;;;;;;2.05;1.48;;;;;;;;;;4419160;32;20093;-71
2021/09/05 08:16:00;;;;;;;1.48;1.35;;;;;;;;;;4418850;32;20225;-70
2021/09/05 08:18:30;;;;;;;1.30;1.20;;;;;;;;;;4419272;32;20242;-70
2021/09/05 08:20:56;;;;;;;1.30;1.20;;;;;;;;;;4419243;32;20124;-70
2021/09/05 08:23:22;;;;;;;1.27;1.17;;;;;;;;;;4419288;32;20204;-70
2021/09/05 08:25:48;;;;;;;4.78;1.30;;;;;;;;;;4417850;32;20136;-69
2021/09/05 08:28:14;;;;;;;2.90;1.20;;;;;;;;;;4411503;32;20738;-70
2021/09/05 08:30:40;;;;;;;1.10;1.10;;;;;;;;;;4408970;32;20420;-70
2021/09/05 08:33:06;;;;;;;1.40;1.30;;;;;;;;;;4408953;32;20100;-70
2021/09/05 08:35:32;;;;;;;1.08;1.08;;;;;;;;;;4408869;32;20185;-70
2021/09/05 08:37:57;;;;;;;1.50;1.33;;;;;;;;;;4408927;32;20101;-70
2021/09/05 08:40:23;;;;;;;3.67;1.15;;;;;;;;;;4408904;32;20120;-70
2021/09/05 08:42:52;;;;;;;1.40;1.30;;;;;;;;;;4407442;32;20388;-70
2021/09/05 08:45:18;;;;;;;1.45;1.35;;;;;;;;;;4408814;32;20102;-70
2021/09/05 08:47:44;;;;;;;8.88;3.67;;;;;;;;;;4408825;32;20120;-70
2021/09/05 08:50:10;;;;;;;2.87;1.80;;;;;;;;;;4408780;32;20552;-70
2021/09/05 08:52:36;;;;;;;2.28;1.40;;;;;;;;;;4409293;32;20082;-71
2021/09/05 08:55:03;;;;;;;2.12;1.27;;;;;;;;;;4407319;32;20136;-70
2021/09/05 08:57:29;;;;;;;1.40;1.30;;;;;;;;;;4408938;32;20134;-70
2021/09/05 08:59:55;;;;;;;1.30;1.20;;;;;;;;;;4408807;32;20312;-70
2021/09/05 09:02:21;;;;;;;1.20;1.10;;;;;;;;;;4407225;32;20114;-71
2021/09/05 09:04:50;;;;;;;3.60;1.20;;;;;;;;;;4408907;32;20209;-71
2021/09/05 09:07:16;;;;;;;1.70;1.40;;;;;;;;;;4408790;32;20197;-71
2021/09/05 09:09:51;;;;;;;1.30;1.20;;;;;;;;;;4407502;32;20095;-70
2021/09/05 09:12:17;;;;;;;4.32;1.40;;;;;;;;;;4408821;32;20101;-71
2021/09/05 09:14:47;;;;;;;1.48;1.30;;;;;;;;;;4407454;32;20121;-71
2021/09/05 09:17:14;;;;;;;1.92;1.37;;;;;;;;;;4408515;32;20464;-71
2021/09/05 09:19:44;;;;;;;1.50;1.40;;;;;;;;;;4408650;32;20456;-70
2021/09/05 09:22:18;;;;;;;1.95;1.40;;;;;;;;;;4407010;32;20104;-70
2021/09/05 09:24:44;;;;;;;3.78;1.45;;;;;;;;;;4408757;32;20098;-70
2021/09/05 09:27:11;;;;;;;4.20;1.40;;;;;;;;;;4408393;32;20200;-70
2021/09/05 09:29:37;;;;;;;1.75;1.30;;;;;;;;;;4408554;32;20221;-71
2021/09/05 09:32:05;;;;;;;1.30;1.20;;;;;;;;;;4406871;32;20125;-71
2021/09/05 09:34:41;;;;;;;2.15;1.17;;;;;;;;;;4408482;32;20085;-71
2021/09/05 09:37:12;;;;;;;1.92;1.50;;;;;;;;;;4408480;32;20104;-71
2021/09/05 09:39:51;;;;;;;1.40;1.30;;;;;;;;;;4406311;32;20085;-70
2021/09/05 09:42:37;;;;;;;2.87;1.37;;;;;;;;;;4407124;32;20455;-70
2021/09/05 09:45:12;;;;;;;1.65;1.42;;;;;;;;;;4406966;32;20115;-70
2021/09/05 09:47:48;;;;;;;1.62;1.50;;;;;;;;;;4406931;32;20520;-70
2021/09/05 09:50:15;;;;;;;1.15;1.15;;;;;;;;;;4406977;32;20128;-70
2021/09/05 09:52:43;;;;;;;2.05;1.40;;;;;;;;;;4407079;32;20096;-71
2021/09/05 09:55:09;;;;;;;1.25;1.00;;;;;;;;;;4406827;32;20565;-70
2021/09/05 09:57:35;;;;;;;1.40;1.30;;;;;;;;;;4408206;32;20535;-70
2021/09/05 10:00:01;;;;;;;2.65;1.17;;;;;;;;;;4406780;32;20124;-71
2021/09/05 10:02:27;;;;;;;1.45;1.35;;;;;;;;;;4408200;32;20499;-70
2021/09/05 10:04:53;;;;;;;1.55;1.40;;;;;;;;;;4408434;32;20235;-70
2021/09/05 10:07:22;;;;;;;5.30;1.30;;;;;;;;;;4406518;32;20112;-71
2021/09/05 10:09:49;;;;;;;2.03;1.40;;;;;;;;;;4408186;32;20172;-70
2021/09/05 10:12:15;;;;;;;2.33;1.37;;;;;;;;;;4407733;32;20124;-70
2021/09/05 10:14:42;;;;;;;1.65;1.50;;;;;;;;;;4408202;32;20275;-70
2021/09/05 10:17:08;;;;;;;1.90;1.40;;;;;;;;;;4394066;32;20093;-69
2021/09/05 10:19:38;;;;;;;1.95;1.40;;;;;;;;;;4394132;32;20116;-69
2021/09/05 10:22:04;;;;;;;3.08;1.98;;;;;;;;;;4393773;32;20527;-69
2021/09/05 10:24:47;;;;;;;1.50;1.40;;;;;;;;;;4394109;32;20254;-69
2021/09/05 10:27:14;;;;;;;9.50;1.62;;;;;;;;;;4406745;32;20101;-70
2021/09/05 10:30:11;;;;;;;1.42;1.33;;;;;;;;;;4407845;32;20101;-69
2021/09/05 10:32:44;;;;;;;2.08;1.40;;;;;;;;;;4407906;32;20101;-69
2021/09/05 10:35:45;;;;;;;3.50;1.40;;;;;;;;;;4407730;32;20115;-69
2021/09/05 10:38:11;;;;;;;1.20;1.10;;;;;;;;;;4397063;32;20508;-69
2021/09/05 10:40:43;;;;;;;1.55;1.37;;;;;;;;;;4407839;32;20093;-69
2021/09/05 10:43:10;;;;;;;1.50;1.40;;;;;;;;;;4407752;32;20086;-69
2021/09/05 10:45:36;;;;;;;1.55;1.45;;;;;;;;;;4394027;32;20097;-70
2021/09/05 10:48:03;;;;;;;1.33;1.23;;;;;;;;;;4393751;32;20123;-70
2021/09/05 10:50:36;;;;;;;1.67;1.40;;;;;;;;;;4407422;32;20116;-70
2021/09/05 10:53:34;;;;;;;1.40;1.30;;;;;;;;;;4406248;32;20440;-70
2021/09/05 10:56:11;;;;;;;1.60;1.50;;;;;;;;;;4395451;32;20128;-70
2021/09/05 10:58:52;;;;;;;1.50;1.40;;;;;;;;;;4407953;32;20090;-70
2021/09/05 11:01:18;;;;;;;1.35;1.25;;;;;;;;;;4407808;32;20129;-70
2021/09/05 11:04:15;;;;;;;1.30;1.20;;;;;;;;;;4407537;32;20117;-70
2021/09/05 11:06:44;;;;;;;1.50;1.40;;;;;;;;;;4407295;32;20093;-70
2021/09/05 11:11:58;;;;;;;1.30;1.20;;;;;;;;;;4407510;32;20108;-70
2021/09/05 11:14:48;;;;;;;1.42;1.30;;;;;;;;;;4408228;32;20160;-71
2021/09/05 11:17:19;;;;;;;1.30;1.20;;;;;;;;;;4397533;32;20113;-70
2021/09/05 11:20:04;;;;;;;1.10;1.10;;;;;;;;;;4407502;32;20127;-70
2021/09/05 11:22:34;;;;;;;1.48;1.20;;;;;;;;;;4407317;32;20512;-71
2021/09/05 11:25:11;;;;;;;1.20;1.10;;;;;;;;;;4406912;32;20112;-72
2021/09/05 11:27:46;;;;;;;1.75;1.15;;;;;;;;;;4407492;32;20543;-69
2021/09/05 11:30:12;;;;;;;1.58;1.17;;;;;;;;;;4407682;32;20104;-69
2021/09/05 11:32:40;;;;;;;1.52;1.30;;;;;;;;;;4407219;32;20135;-67
2021/09/05 11:35:06;;;;;;;1.20;1.20;;;;;;;;;;4407133;32;20113;-67
2021/09/05 11:37:34;;;;;;;3.05;1.00;;;;;;;;;;4407367;32;20452;-67
2021/09/05 11:40:16;;;;;;;1.42;1.20;;;;;;;;;;4405739;32;20117;-66
2021/09/05 11:42:44;;;;;;;1.90;1.50;;;;;;;;;;4407459;32;20108;-68
2021/09/05 11:45:10;;;;;;;1.35;1.25;;;;;;;;;;4407004;32;20112;-66
2021/09/05 11:47:36;;;;;;;1.70;1.30;;;;;;;;;;4407006;32;20109;-67
2021/09/05 11:50:03;;;;;;;1.27;1.17;;;;;;;;;;4405557;32;20120;-67
2021/09/05 11:52:30;;;;;;;1.20;1.10;;;;;;;;;;4406881;32;20560;-68
2021/09/05 11:55:12;;;;;;;1.12;1.00;;;;;;;;;;4407160;32;20238;-68
2021/09/05 11:57:53;;;;;;;1.37;1.27;;;;;;;;;;4406968;32;20535;-68
2021/09/05 12:00:29;;;;;;;1.30;1.20;;;;;;;;;;4407096;32;20113;-69
2021/09/05 12:02:55;;;;;;;1.30;1.10;;;;;;;;;;4407877;32;20132;-66
2021/09/05 12:05:21;;;;;;;1.60;1.27;;;;;;;;;;4409422;32;20201;-65
2021/09/05 12:07:47;;;;;;;1.27;1.12;;;;;;;;;;4409320;32;20121;-65
2021/09/05 12:10:18;;;;;;;0.90;0.90;;;;;;;;;;4408974;32;20535;-65
2021/09/05 12:12:44;;;;;;;1.20;1.10;;;;;;;;;;4402622;32;20101;-66
2021/09/05 12:15:11;;;;;;;1.25;1.15;;;;;;;;;;4393938;32;20143;-67
2021/09/05 12:17:37;;;;;;;2.00;1.27;;;;;;;;;;4393819;32;20117;-67
2021/09/05 12:20:05;;;;;;;1.20;1.20;;;;;;;;;;4392630;32;20124;-67
2021/09/05 12:22:47;;;;;;;1.10;1.10;;;;;;;;;;4394203;32;20117;-67
2021/09/05 12:25:19;;;;;;;1.65;1.20;;;;;;;;;;4394099;32;20109;-67
2021/09/05 12:27:58;;;;;;;2.03;1.30;;;;;;;;;;4394324;32;20271;-67
2021/09/05 12:30:29;;;;;;;1.33;1.23;;;;;;;;;;4393780;32;20104;-68
2021/09/05 12:33:03;;;;;;;1.30;1.20;;;;;;;;;;4393759;32;20128;-67
2021/09/05 12:35:29;;;;;;;1.30;1.20;;;;;;;;;;4393578;32;20207;-68
2021/09/05 12:38:08;;;;;;;2.33;1.33;;;;;;;;;;4393899;32;20137;-68
2021/09/05 12:40:53;;;;;;;1.12;1.12;;;;;;;;;;4392319;32;20533;-68
2021/09/05 12:43:51;;;;;;;1.40;1.30;;;;;;;;;;4392358;32;20298;-67
2021/09/05 12:46:37;;;;;;;1.67;1.35;;;;;;;;;;4392580;32;20452;-67
2021/09/05 12:49:09;;;;;;;;;;;;;;;;;;4394101;32;20218;-69
2021/09/05 12:51:45;;;;;;;2.12;1.30;;;;;;;;;;4394002;32;19971;-68
2021/09/05 12:54:12;;;;;;;1.30;1.20;;;;;;;;;;4392286;32;20116;-70
2021/09/05 12:56:39;;;;;;;2.65;1.25;;;;;;;;;;4397744;32;20101;-69
2021/09/05 12:59:06;;;;;;;4.22;1.20;;;;;;;;;;4399476;32;20112;-68
2021/09/05 13:01:32;;;;;;;1.10;1.10;;;;;;;;;;4393749;32;20576;-68
2021/09/05 13:04:00;;;;;;;1.80;1.20;;;;;;;;;;4393846;32;20119;-68
2021/09/05 13:06:26;;;;;;;1.10;1.10;;;;;;;;;;4393602;32;20108;-68
2021/09/05 13:08:52;;;;;;;4.82;1.65;;;;;;;;;;4393441;32;20085;-68
2021/09/05 13:11:20;;;;;;;3.10;1.65;;;;;;;;;;4393384;32;20168;-68
2021/09/05 13:13:46;;;;;;;1.55;1.35;;;;;;;;;;4404682;32;20462;-68
2021/09/05 13:16:13;;;;;;;2.65;2.03;;;;;;;;;;4408257;32;20488;-68
2021/09/05 13:18:39;;;;;;;4.80;2.05;;;;;;;;;;4408595;32;20109;-67
2021/09/05 13:21:06;;;;;;;2.83;2.00;;;;;;;;;;4407341;32;20482;-67
2021/09/05 13:23:32;;;;;;;3.67;2.03;;;;;;;;;;4407068;32;20101;-67
2021/09/05 13:25:58;;;;;;;2.17;1.67;;;;;;;;;;4408793;32;20202;-68
2021/09/05 13:28:24;;;;;;;2.25;1.70;;;;;;;;;;4408629;32;20101;-67
2021/09/05 13:30:49;;;;;;;2.65;1.85;;;;;;;;;;4408480;32;20113;-67
2021/09/05 13:33:15;;;;;;;1.50;1.40;;;;;;;;;;4408380;32;20116;-68
2021/09/05 13:35:42;;;;;;;4.22;1.60;;;;;;;;;;4408680;32;20136;-68
2021/09/05 13:38:08;;;;;;;2.22;2.00;;;;;;;;;;4407191;32;20104;-69
2021/09/05 13:40:34;;;;;;;2.58;1.90;;;;;;;;;;4408414;32;20122;-67
2021/09/05 13:43:00;;;;;;;3.03;2.37;;;;;;;;;;4406899;32;20499;-66
2021/09/05 13:45:26;;;;;;;4.80;2.10;;;;;;;;;;4408289;32;20120;-67
2021/09/05 13:47:52;;;;;;;3.30;2.00;;;;;;;;;;4408318;32;20212;-66
2021/09/05 13:50:18;;;;;;;2.47;2.08;;;;;;;;;;4408325;32;20594;-69
2021/09/05 13:52:44;;;;;;;3.50;2.42;;;;;;;;;;4408230;32;20116;-69
2021/09/05 13:55:10;;;;;;;3.55;2.30;;;;;;;;;;4399549;32;20113;-69
2021/09/05 13:57:36;;;;;;;2.92;2.30;;;;;;;;;;4394347;32;20105;-68
2021/09/05 14:00:03;;;;;;;2.53;2.10;;;;;;;;;;4391619;32;20117;-67
2021/09/05 14:02:29;;;;;;;3.00;2.00;;;;;;;;;;4392488;32;20351;-67
2021/09/05 14:04:55;;;;;;;2.70;2.05;;;;;;;;;;4396953;32;20142;-67
2021/09/05 14:07:21;;;;;;;5.55;2.30;;;;;;;;;;4408233;32;20609;-67
2021/09/05 14:09:47;;;;;;;3.60;2.33;;;;;;;;;;4408049;32;20216;-67
2021/09/05 14:12:13;;;;;;;4.55;2.10;;;;;;;;;;4408298;32;20129;-67
2021/09/05 14:14:39;;;;;;;3.42;2.40;;;;;;;;;;4407988;32;20504;-68
2021/09/05 14:17:06;;;;;;;4.10;2.30;;;;;;;;;;4407796;32;20266;-68
2021/09/05 14:19:33;;;;;;;4.55;2.22;;;;;;;;;;4408069;32;20129;-67
2021/09/05 14:22:00;;;;;;;4.28;2.42;;;;;;;;;;4408050;32;20128;-66
2021/09/05 14:24:29;;;;;;;2.92;2.12;;;;;;;;;;4408066;32;20465;-68
2021/09/05 14:27:05;;;;;;;4.95;2.70;;;;;;;;;;4406291;32;20105;-68
2021/09/05 14:38:06;;;;;;;5.40;2.60;;;;;;;;;;4407972;32;20113;-68
2021/09/05 14:54:12;;;;;;;3.03;1.37;;;;;;;;;;4391686;32;20121;-68
2021/09/05 14:56:38;;;;;;;1.58;1.48;;;;;;;;;;4397256;32;20123;-68
2021/09/05 14:59:16;;;;;;;4.00;1.83;;;;;;;;;;4406875;32;20113;-67
2021/09/05 15:12:24;;;;;;;3.03;1.48;;;;;;;;;;4407395;32;20093;-67
2021/09/05 15:14:49;;;;;;;6.40;1.80;;;;;;;;;;4407619;32;20108;-67
2021/09/05 15:17:15;;;;;;;4.35;2.03;;;;;;;;;;4407348;32;20205;-68
2021/09/05 15:19:41;;;;;;;1.60;1.48;;;;;;;;;;4407631;32;20204;-68
2021/09/05 15:24:52;;;;;;;4.43;1.58;;;;;;;;;;4407461;32;20109;-68
2021/09/05 15:27:21;;;;;;;2.47;1.70;;;;;;;;;;4407239;32;20096;-68
2021/09/05 15:32:49;;;;;;;4.28;1.90;;;;;;;;;;4407241;32;20527;-68
2021/09/05 15:49:26;;;;;;;4.53;3.67;;;;;;;;;;4407125;32;20109;-68
2021/09/05 15:51:56;;;;;;;14.30;8.02;;;;;;;;;;4408325;32;20117;-68
2021/09/05 15:54:23;;;;;;;15.48;8.57;;;;;;;;;;4407911;32;20101;-68
2021/09/05 15:56:53;;;;;;;14.77;9.43;;;;;;;;;;4409119;32;20207;-69
2021/09/05 16:02:00;;;;;;;17.50;11.63;;;;;;;;;;4409264;32;20639;-68
2021/09/05 16:17:49;;;;;;;10.88;7.32;;;;;;;;;;4393837;32;20451;-68
2021/09/05 16:20:16;;;;;;;7.07;4.40;;;;;;;;;;4394263;32;20239;-68